sensor_id;sensor_type;location;lat;lon;timestamp;pressure;altitude;pressure_sealevel;temperature;humidity
71057;BME280;58380;48.312;9.246;2023-05-03T04:17:23;61853.94;;;-146.86;100.00
71057;BME280;58380;48.312;9.246;2023-05-03T04:19:48;61853.94;;;-146.86;100.00
71057;BME280;58380;48.312;9.246;2023-05-03T04:22:13;61853.94;;;-146.86;100.00
71057;BME280;58380;48.312;9.246;2023-05-03T04:24:39;61853.94;;;-146.86;100.00
71057;BME280;58380;48.312;9.246;2023-05-03T04:27:04;61853.94;;;-146.86;100.00
71057;BME280;58380;48.312;9.246;2023-05-03T04:29:30;61853.94;;;-146.86;100.00
71057;BME280;58380;48.312;9.246;2023-05-03T04:31:56;61853.94;;;-146.86;100.00
71057;BME280;58380;48.312;9.246;2023-05-03T04:34:21;61853.94;;;-146.86;100.00
71057;BME280;58380;48.312;9.246;2023-05-03T04:36:47;61853.94;;;-146.86;100.00
71057;BME280;58380;48.312;9.246;2023-05-03T04:39:13;61853.94;;;-146.86;100.00
71057;BME280;58380;48.312;9.246;2023-05-03T04:41:39;61853.94;;;-146.86;100.00
71057;BME280;58380;48.312;9.246;2023-05-03T04:44:06;61853.94;;;-146.86;100.00
71057;BME280;58380;48.312;9.246;2023-05-03T04:46:34;61853.94;;;-146.86;100.00
71057;BME280;58380;48.312;9.246;2023-05-03T04:49:00;61853.94;;;-146.86;100.00
71057;BME280;58380;48.312;9.246;2023-05-03T04:51:26;61853.94;;;-146.86;100.00
71057;BME280;58380;48.312;9.246;2023-05-03T04:53:52;61853.94;;;-146.86;100.00
71057;BME280;58380;48.312;9.246;2023-05-03T04:56:18;61853.94;;;-146.86;100.00
71057;BME280;58380;48.312;9.246;2023-05-03T04:58:44;61853.94;;;-146.86;100.00
71057;BME280;58380;48.312;9.246;2023-05-03T05:01:10;61853.94;;;-146.86;100.00
71057;BME280;58380;48.312;9.246;2023-05-03T05:03:35;61853.94;;;-146.86;100.00
71057;BME280;58380;48.312;9.246;2023-05-03T05:06:01;61853.94;;;-146.86;100.00
71057;BME280;58380;48.312;9.246;2023-05-03T05:08:29;61853.94;;;-146.86;100.00
71057;BME280;58380;48.312;9.246;2023-05-03T05:10:54;61853.94;;;-146.86;100.00
71057;BME280;58380;48.312;9.246;2023-05-03T05:13:20;61853.94;;;-146.86;100.00
71057;BME280;58380;48.312;9.246;2023-05-03T05:15:45;61853.94;;;-146.86;100.00
71057;BME280;58380;48.312;9.246;2023-05-03T05:18:11;61853.94;;;-146.86;100.00
71057;BME280;58380;48.312;9.246;2023-05-03T05:20:36;61853.94;;;-146.86;100.00
71057;BME280;58380;48.312;9.246;2023-05-03T05:23:02;61853.94;;;-146.86;100.00
71057;BME280;58380;48.312;9.246;2023-05-03T05:25:27;61853.94;;;-146.86;100.00
71057;BME280;58380;48.312;9.246;2023-05-03T05:27:53;61853.94;;;-146.86;100.00
71057;BME280;58380;48.312;9.246;2023-05-03T05:30:19;61853.94;;;-146.86;100.00
71057;BME280;58380;48.312;9.246;2023-05-03T05:32:44;61853.94;;;-146.86;100.00
71057;BME280;58380;48.312;9.246;2023-05-03T05:35:10;61853.94;;;-146.86;100.00
71057;BME280;58380;48.312;9.246;2023-05-03T05:37:35;61853.94;;;-146.86;100.00
71057;BME280;58380;48.312;9.246;2023-05-03T05:40:01;61853.94;;;-146.86;100.00
71057;BME280;58380;48.312;9.246;2023-05-03T05:42:27;61853.94;;;-146.86;100.00
71057;BME280;58380;48.312;9.246;2023-05-03T05:44:52;61853.94;;;-146.86;100.00
71057;BME280;58380;48.312;9.246;2023-05-03T05:47:18;61853.94;;;-146.86;100.00
71057;BME280;58380;48.312;9.246;2023-05-03T05:49:43;61853.94;;;-146.86;100.00
71057;BME280;58380;48.312;9.246;2023-05-03T05:52:09;61853.94;;;-146.86;100.00
71057;BME280;58380;48.312;9.246;2023-05-03T05:54:34;61853.94;;;-146.86;100.00
71057;BME280;58380;48.312;9.246;2023-05-03T05:57:03;61853.94;;;-146.86;100.00
71057;BME280;58380;48.312;9.246;2023-05-03T05:59:28;61853.94;;;-146.86;100.00
71057;BME280;58380;48.312;9.246;2023-05-03T06:01:55;61853.94;;;-146.86;100.00
71057;BME280;58380;48.312;9.246;2023-05-03T06:04:21;61853.94;;;-146.86;100.00
71057;BME280;58380;48.312;9.246;2023-05-03T06:06:46;94315.09;;;4.03;100.00
71057;BME280;58380;48.312;9.246;2023-05-03T06:09:12;94285.16;;;3.99;100.00
71057;BME280;58380;48.312;9.246;2023-05-03T06:11:38;94250.81;;;3.88;100.00
71057;BME280;58380;48.312;9.246;2023-05-03T06:14:06;94299.63;;;4.28;100.00
71057;BME280;58380;48.312;9.246;2023-05-03T06:16:35;94263.66;;;4.17;100.00
71057;BME280;58380;48.312;9.246;2023-05-03T06:19:04;94223.28;;;4.06;100.00
71057;BME280;58380;48.312;9.246;2023-05-03T06:24:15;94131.91;;;3.73;100.00
71057;BME280;58380;48.312;9.246;2023-05-03T06:27:17;94180.03;;;4.23;100.00
71057;BME280;58380;48.312;9.246;2023-05-03T06:30:03;94206.91;;;4.50;100.00
71057;BME280;58380;48.312;9.246;2023-05-03T06:32:40;94199.22;;;4.62;100.00
71057;BME280;58380;48.312;9.246;2023-05-03T06:36:04;94231.28;;;4.96;100.00
71057;BME280;58380;48.312;9.246;2023-05-03T06:39:13;94203.44;;;5.08;100.00
71057;BME280;58380;48.312;9.246;2023-05-03T06:42:25;94136.72;;;4.92;100.00
71057;BME280;58380;48.312;9.246;2023-05-03T06:45:26;94291.38;;;6.24;100.00
71057;BME280;58380;48.312;9.246;2023-05-03T06:48:41;94171.97;;;5.78;100.00
71057;BME280;58380;48.312;9.246;2023-05-03T06:54:42;94137.31;;;6.01;100.00
71057;BME280;58380;48.312;9.246;2023-05-03T07:10:54;94140.81;;;6.87;100.00
71057;BME280;58380;48.312;9.246;2023-05-03T07:13:20;94193.13;;;7.31;100.00
71057;BME280;58380;48.312;9.246;2023-05-03T07:44:34;94122.69;;;7.40;100.00
71057;BME280;58380;48.312;9.246;2023-05-03T07:47:09;94119.41;;;7.44;100.00
71057;BME280;58380;48.312;9.246;2023-05-03T07:58:03;94163.06;;;8.75;100.00
71057;BME280;58380;48.312;9.246;2023-05-03T08:06:37;94181.44;;;9.72;93.78
71057;BME280;58380;48.312;9.246;2023-05-03T08:11:44;94253.97;;;10.38;92.20
71057;BME280;58380;48.312;9.246;2023-05-03T08:22:30;94119.09;;;10.17;90.04
71057;BME280;58380;48.312;9.246;2023-05-03T08:25:22;94205.94;;;10.74;89.16
71057;BME280;58380;48.312;9.246;2023-05-03T08:28:20;94242.38;;;11.16;88.88
71057;BME280;58380;48.312;9.246;2023-05-03T08:30:55;94249.44;;;11.33;89.21
71057;BME280;58380;48.312;9.246;2023-05-03T08:33:34;94217.44;;;11.29;89.17
71057;BME280;58380;48.312;9.246;2023-05-03T08:35:59;94099.28;;;10.53;85.92
71057;BME280;58380;48.312;9.246;2023-05-03T08:52:09;94172.41;;;10.97;86.64
71057;BME280;58380;48.312;9.246;2023-05-03T09:03:19;94123.03;;;11.25;81.67
71057;BME280;58380;48.312;9.246;2023-05-03T09:11:12;94101.09;;;11.51;84.67
71057;BME280;58380;48.312;9.246;2023-05-03T09:13:50;94119.59;;;11.51;81.29
71057;BME280;58380;48.312;9.246;2023-05-03T09:38:26;94261.75;;;11.93;77.82
71057;BME280;58380;48.312;9.246;2023-05-03T09:41:13;94187.72;;;11.44;79.08
71057;BME280;58380;48.312;9.246;2023-05-03T09:44:19;94262.16;;;11.85;79.17
71057;BME280;58380;48.312;9.246;2023-05-03T09:55:44;94156.84;;;12.09;76.60
71057;BME280;58380;48.312;9.246;2023-05-03T09:58:12;94166.41;;;12.15;75.42
71057;BME280;58380;48.312;9.246;2023-05-03T10:00:40;94122.63;;;11.97;79.32
71057;BME280;58380;48.312;9.246;2023-05-03T10:07:10;94179.13;;;12.56;74.42
71057;BME280;58380;48.312;9.246;2023-05-03T10:09:45;94217.72;;;12.89;74.66
71057;BME280;58380;48.312;9.246;2023-05-03T10:12:12;94194.13;;;12.92;71.90
71057;BME280;58380;48.312;9.246;2023-05-03T10:14:52;94240.13;;;13.24;72.77
71057;BME280;58380;48.312;9.246;2023-05-03T10:17:47;94219.50;;;12.73;72.48
71057;BME280;58380;48.312;9.246;2023-05-03T10:21:07;94136.88;;;11.91;69.75
71057;BME280;58380;48.312;9.246;2023-05-03T10:24:09;94239.00;;;12.62;70.62
71057;BME280;58380;48.312;9.246;2023-05-03T10:26:49;94217.88;;;12.72;73.39
71057;BME280;58380;48.312;9.246;2023-05-03T10:32:04;94207.88;;;12.84;69.08
71057;BME280;58380;48.312;9.246;2023-05-03T10:34:56;94238.25;;;13.14;71.15
71057;BME280;58380;48.312;9.246;2023-05-03T10:37:25;94220.44;;;13.04;67.05
71057;BME280;58380;48.312;9.246;2023-05-03T10:39:54;94233.13;;;13.02;64.98
71057;BME280;58380;48.312;9.246;2023-05-03T10:42:22;94235.69;;;12.82;63.86
71057;BME280;58380;48.312;9.246;2023-05-03T10:44:53;94164.47;;;12.43;69.13
71057;BME280;58380;48.312;9.246;2023-05-03T10:47:21;94212.16;;;12.90;63.78
71057;BME280;58380;48.312;9.246;2023-05-03T10:55:10;94235.34;;;13.21;68.74
71057;BME280;58380;48.312;9.246;2023-05-03T10:57:39;94228.84;;;13.44;63.26
71057;BME280;58380;48.312;9.246;2023-05-03T11:00:11;94230.94;;;13.36;63.93
71057;BME280;58380;48.312;9.246;2023-05-03T11:05:46;94202.34;;;13.59;67.36
71057;BME280;58380;48.312;9.246;2023-05-03T11:10:44;94216.91;;;13.41;58.50
71057;BME280;58380;48.312;9.246;2023-05-03T11:13:11;94220.38;;;13.57;60.00
71057;BME280;58380;48.312;9.246;2023-05-03T11:15:37;94153.66;;;13.12;59.65
71057;BME280;58380;48.312;9.246;2023-05-03T11:18:05;94099.81;;;12.91;62.33
71057;BME280;58380;48.312;9.246;2023-05-03T11:20:32;94194.19;;;13.86;61.39
71057;BME280;58380;48.312;9.246;2023-05-03T11:22:57;94222.84;;;14.10;58.20
71057;BME280;58380;48.312;9.246;2023-05-03T11:25:23;94140.03;;;13.67;58.11
71057;BME280;58380;48.312;9.246;2023-05-03T11:27:49;94147.97;;;13.46;58.28
71057;BME280;58380;48.312;9.246;2023-05-03T11:30:14;94202.88;;;13.46;58.20
71057;BME280;58380;48.312;9.246;2023-05-03T11:32:42;94211.81;;;13.29;56.83
71057;BME280;58380;48.312;9.246;2023-05-03T11:35:10;94214.25;;;13.46;61.01
71057;BME280;58380;48.312;9.246;2023-05-03T11:37:36;94194.66;;;13.57;60.15
71057;BME280;58380;48.312;9.246;2023-05-03T11:40:02;94207.97;;;13.73;58.76
71057;BME280;58380;48.312;9.246;2023-05-03T11:42:29;94206.34;;;13.72;55.08
71057;BME280;58380;48.312;9.246;2023-05-03T11:44:54;94180.06;;;13.65;55.19
71057;BME280;58380;48.312;9.246;2023-05-03T11:47:20;94176.63;;;13.75;59.51
71057;BME280;58380;48.312;9.246;2023-05-03T11:49:51;94135.75;;;13.50;58.68
71057;BME280;58380;48.312;9.246;2023-05-03T11:52:25;94195.69;;;13.46;59.03
71057;BME280;58380;48.312;9.246;2023-05-03T11:54:52;94182.25;;;13.05;59.07
71057;BME280;58380;48.312;9.246;2023-05-03T11:57:18;94208.81;;;13.10;62.23
71057;BME280;58380;48.312;9.246;2023-05-03T11:59:45;94153.66;;;13.12;60.52
71057;BME280;58380;48.312;9.246;2023-05-03T12:02:14;94196.53;;;13.67;57.17
71057;BME280;58380;48.312;9.246;2023-05-03T12:04:41;94194.97;;;13.92;60.65
71057;BME280;58380;48.312;9.246;2023-05-03T12:07:11;94188.09;;;14.11;61.92
71057;BME280;58380;48.312;9.246;2023-05-03T12:09:38;94167.63;;;14.22;56.71
71057;BME280;58380;48.312;9.246;2023-05-03T12:12:04;94191.00;;;14.30;57.86
71057;BME280;58380;48.312;9.246;2023-05-03T12:14:58;94194.72;;;14.09;56.37
71057;BME280;58380;48.312;9.246;2023-05-03T12:17:54;94188.09;;;13.80;58.34
71057;BME280;58380;48.312;9.246;2023-05-03T12:20:22;94173.69;;;13.41;59.93
71057;BME280;58380;48.312;9.246;2023-05-03T12:22:50;94189.06;;;13.49;60.69
71057;BME280;58380;48.312;9.246;2023-05-03T12:25:17;94145.00;;;13.32;58.37
71057;BME280;58380;48.312;9.246;2023-05-03T12:27:43;94188.56;;;13.57;61.79
71057;BME280;58380;48.312;9.246;2023-05-03T12:30:09;94152.19;;;13.37;59.31
71057;BME280;58380;48.312;9.246;2023-05-03T12:32:35;94166.75;;;13.34;56.81
71057;BME280;58380;48.312;9.246;2023-05-03T12:35:03;94159.53;;;13.20;59.45
71057;BME280;58380;48.312;9.246;2023-05-03T12:37:29;94140.69;;;13.11;61.69
71057;BME280;58380;48.312;9.246;2023-05-03T12:39:55;94147.66;;;13.43;59.44
71057;BME280;58380;48.312;9.246;2023-05-03T12:42:21;94103.41;;;13.48;61.48
71057;BME280;58380;48.312;9.246;2023-05-03T12:44:46;94157.56;;;14.09;57.98
71057;BME280;58380;48.312;9.246;2023-05-03T12:47:11;94169.75;;;14.56;62.46
71057;BME280;58380;48.312;9.246;2023-05-03T12:49:37;94160.69;;;14.67;56.02
71057;BME280;58380;48.312;9.246;2023-05-03T12:52:03;94119.50;;;14.70;59.97
71057;BME280;58380;48.312;9.246;2023-05-03T12:54:28;94158.16;;;15.06;56.58
71057;BME280;58380;48.312;9.246;2023-05-03T12:56:54;94180.69;;;15.24;56.64
71057;BME280;58380;48.312;9.246;2023-05-03T12:59:19;94169.69;;;14.86;53.86
71057;BME280;58380;48.312;9.246;2023-05-03T13:01:45;94159.38;;;14.54;57.91
71057;BME280;58380;48.312;9.246;2023-05-03T13:04:10;94151.19;;;14.35;57.33
71057;BME280;58380;48.312;9.246;2023-05-03T13:06:36;94099.72;;;13.95;57.13
71057;BME280;58380;48.312;9.246;2023-05-03T13:09:03;94183.03;;;14.20;58.16
71057;BME280;58380;48.312;9.246;2023-05-03T13:11:30;94134.72;;;13.92;57.59
71057;BME280;58380;48.312;9.246;2023-05-03T13:13:56;94183.03;;;14.51;59.63
71057;BME280;58380;48.312;9.246;2023-05-03T13:16:21;94142.66;;;14.59;55.75
71057;BME280;58380;48.312;9.246;2023-05-03T13:18:48;94129.03;;;14.81;57.49
71057;BME280;58380;48.312;9.246;2023-05-03T13:21:19;94149.47;;;14.91;55.39
71057;BME280;58380;48.312;9.246;2023-05-03T13:23:45;94140.22;;;14.78;55.03
71057;BME280;58380;48.312;9.246;2023-05-03T13:26:10;94141.84;;;14.48;55.09
71057;BME280;58380;48.312;9.246;2023-05-03T13:28:36;94139.75;;;14.30;56.78
71057;BME280;58380;48.312;9.246;2023-05-03T13:31:01;94150.94;;;14.11;57.89
71057;BME280;58380;48.312;9.246;2023-05-03T13:33:26;94141.91;;;13.92;58.34
71057;BME280;58380;48.312;9.246;2023-05-03T13:35:53;94118.28;;;14.16;59.00
71057;BME280;58380;48.312;9.246;2023-05-03T13:38:18;94116.63;;;14.56;57.09
71057;BME280;58380;48.312;9.246;2023-05-03T13:40:44;94131.53;;;15.17;55.49
71057;BME280;58380;48.312;9.246;2023-05-03T13:43:09;94099.44;;;15.03;55.47
71057;BME280;58380;48.312;9.246;2023-05-03T13:45:35;94115.00;;;14.50;55.02
71057;BME280;58380;48.312;9.246;2023-05-03T13:48:06;94107.94;;;13.78;55.40
71057;BME280;58380;48.312;9.246;2023-05-03T13:50:32;94136.84;;;13.70;54.93
71057;BME280;58380;48.312;9.246;2023-05-03T13:52:58;94100.50;;;13.55;52.99
71057;BME280;58380;48.312;9.246;2023-05-03T13:55:23;94064.69;;;13.73;53.83
71057;BME280;58380;48.312;9.246;2023-05-03T13:57:50;94037.84;;;14.05;48.33
71057;BME280;58380;48.312;9.246;2023-05-03T14:00:16;94119.88;;;15.07;51.28
71057;BME280;58380;48.312;9.246;2023-05-03T14:02:44;94112.59;;;15.28;51.61
71057;BME280;58380;48.312;9.246;2023-05-03T14:05:10;94132.59;;;15.21;52.29
71057;BME280;58380;48.312;9.246;2023-05-03T14:07:37;94029.88;;;14.15;53.41
71057;BME280;58380;48.312;9.246;2023-05-03T14:10:02;94110.03;;;14.17;54.39
71057;BME280;58380;48.312;9.246;2023-05-03T14:12:29;94078.72;;;14.09;55.73
71057;BME280;58380;48.312;9.246;2023-05-03T14:15:01;94102.47;;;14.76;56.96
71057;BME280;58380;48.312;9.246;2023-05-03T14:17:27;94125.66;;;15.20;48.99
71057;BME280;58380;48.312;9.246;2023-05-03T14:19:53;94083.28;;;15.39;49.29
71057;BME280;58380;48.312;9.246;2023-05-03T14:22:18;94114.13;;;15.40;49.79
71057;BME280;58380;48.312;9.246;2023-05-03T14:24:44;94106.13;;;14.90;51.76
71057;BME280;58380;48.312;9.246;2023-05-03T14:27:09;94090.91;;;14.31;50.81
71057;BME280;58380;48.312;9.246;2023-05-03T14:29:35;94023.56;;;13.65;52.21
71057;BME280;58380;48.312;9.246;2023-05-03T14:32:00;94121.16;;;14.35;54.91
71057;BME280;58380;48.312;9.246;2023-05-03T14:34:26;94077.31;;;14.58;50.32
71057;BME280;58380;48.312;9.246;2023-05-03T14:36:53;94109.91;;;15.34;52.54
71057;BME280;58380;48.312;9.246;2023-05-03T14:39:18;94074.66;;;15.52;50.25
71057;BME280;58380;48.312;9.246;2023-05-03T14:41:44;94070.41;;;15.51;47.48
71057;BME280;58380;48.312;9.246;2023-05-03T14:44:09;94098.72;;;15.37;44.06
71057;BME280;58380;48.312;9.246;2023-05-03T14:46:35;94085.44;;;15.31;42.68
71057;BME280;58380;48.312;9.246;2023-05-03T14:49:00;94076.53;;;15.51;49.02
71057;BME280;58380;48.312;9.246;2023-05-03T14:51:25;94098.34;;;15.93;45.10
71057;BME280;58380;48.312;9.246;2023-05-03T14:53:52;94095.72;;;15.48;46.74
71057;BME280;58380;48.312;9.246;2023-05-03T14:56:17;94104.31;;;15.30;45.46
71057;BME280;58380;48.312;9.246;2023-05-03T14:58:42;94080.16;;;15.26;47.85
71057;BME280;58380;48.312;9.246;2023-05-03T15:01:15;94093.41;;;15.76;48.46
71057;BME280;58380;48.312;9.246;2023-05-03T15:03:44;94085.47;;;16.05;46.57
71057;BME280;58380;48.312;9.246;2023-05-03T15:06:10;94084.19;;;15.98;46.03
71057;BME280;58380;48.312;9.246;2023-05-03T15:08:35;94044.66;;;16.10;46.94
71057;BME280;58380;48.312;9.246;2023-05-03T15:11:03;94082.75;;;16.34;46.71
71057;BME280;58380;48.312;9.246;2023-05-03T15:13:29;94085.69;;;16.09;47.78
71057;BME280;58380;48.312;9.246;2023-05-03T15:15:54;94077.59;;;15.90;44.96
71057;BME280;58380;48.312;9.246;2023-05-03T15:18:20;94060.00;;;15.94;46.49
71057;BME280;58380;48.312;9.246;2023-05-03T15:20:46;94076.53;;;16.44;46.96
71057;BME280;58380;48.312;9.246;2023-05-03T15:23:11;94074.41;;;16.70;46.55
71057;BME280;58380;48.312;9.246;2023-05-03T15:25:37;94009.25;;;16.57;45.73
71057;BME280;58380;48.312;9.246;2023-05-03T15:28:02;94060.88;;;17.29;45.78
71057;BME280;58380;48.312;9.246;2023-05-03T15:30:28;94058.94;;;17.67;45.51
71057;BME280;58380;48.312;9.246;2023-05-03T15:32:53;94071.66;;;17.56;45.80
71057;BME280;58380;48.312;9.246;2023-05-03T15:35:19;94060.03;;;17.66;44.59
71057;BME280;58380;48.312;9.246;2023-05-03T15:37:44;94064.16;;;17.77;44.39
71057;BME280;58380;48.312;9.246;2023-05-03T15:40:10;94086.19;;;17.50;41.68
71057;BME280;58380;48.312;9.246;2023-05-03T15:42:37;94068.66;;;17.44;44.35
71057;BME280;58380;48.312;9.246;2023-05-03T15:45:06;94088.63;;;17.65;43.18
71057;BME280;58380;48.312;9.246;2023-05-03T15:47:33;94081.28;;;17.38;44.39
71057;BME280;58380;48.312;9.246;2023-05-03T15:49:58;94042.69;;;17.12;44.39
71057;BME280;58380;48.312;9.246;2023-05-03T15:52:24;94067.94;;;17.38;45.00
71057;BME280;58380;48.312;9.246;2023-05-03T15:54:50;94062.88;;;17.37;42.28
71057;BME280;58380;48.312;9.246;2023-05-03T15:57:15;94086.13;;;16.69;43.69
71057;BME280;58380;48.312;9.246;2023-05-03T15:59:41;94064.22;;;16.24;44.44
71057;BME280;58380;48.312;9.246;2023-05-03T16:02:07;94052.72;;;16.29;43.92
71057;BME280;58380;48.312;9.246;2023-05-03T16:04:33;94062.59;;;16.28;41.24
71057;BME280;58380;48.312;9.246;2023-05-03T16:07:01;94044.53;;;16.25;44.34
71057;BME280;58380;48.312;9.246;2023-05-03T16:09:27;94067.19;;;16.23;42.01
71057;BME280;58380;48.312;9.246;2023-05-03T16:11:54;94062.34;;;16.25;45.29
71057;BME280;58380;48.312;9.246;2023-05-03T16:14:22;94041.41;;;16.18;43.76
71057;BME280;58380;48.312;9.246;2023-05-03T16:16:49;94002.09;;;15.81;44.23
71057;BME280;58380;48.312;9.246;2023-05-03T16:19:14;94038.03;;;15.78;45.86
71057;BME280;58380;48.312;9.246;2023-05-03T16:21:41;94052.06;;;15.15;46.17
71057;BME280;58380;48.312;9.246;2023-05-03T16:24:06;94068.22;;;15.24;47.76
71057;BME280;58380;48.312;9.246;2023-05-03T16:26:32;94039.53;;;15.16;45.59
71057;BME280;58380;48.312;9.246;2023-05-03T16:28:59;94051.25;;;15.09;46.80
71057;BME280;58380;48.312;9.246;2023-05-03T16:31:41;94075.03;;;15.40;46.11
71057;BME280;58380;48.312;9.246;2023-05-03T16:34:51;93938.72;;;14.30;44.36
71057;BME280;58380;48.312;9.246;2023-05-03T17:20:20;93932.59;;;12.78;51.54
71057;BME280;58380;48.312;9.246;2023-05-03T17:23:41;94002.88;;;13.26;52.75
71057;BME280;58380;48.312;9.246;2023-05-03T17:26:23;93905.84;;;12.59;51.93
71057;BME280;58380;48.312;9.246;2023-05-03T17:28:48;93934.19;;;12.68;52.95
71057;BME280;58380;48.312;9.246;2023-05-03T17:31:14;94015.03;;;13.02;51.56
71057;BME280;58380;48.312;9.246;2023-05-03T17:33:39;94067.59;;;13.35;52.82
71057;BME280;58380;48.312;9.246;2023-05-03T17:36:08;94002.84;;;12.90;52.51
71057;BME280;58380;48.312;9.246;2023-05-03T17:38:36;93997.50;;;12.80;52.16
71057;BME280;58380;48.312;9.246;2023-05-03T17:41:09;93938.34;;;12.28;53.61
71057;BME280;58380;48.312;9.246;2023-05-03T17:43:40;93986.88;;;12.60;53.14
71057;BME280;58380;48.312;9.246;2023-05-03T17:46:11;94022.66;;;12.78;54.33
71057;BME280;58380;48.312;9.246;2023-05-03T17:48:46;94028.78;;;12.73;54.30
71057;BME280;58380;48.312;9.246;2023-05-03T17:51:21;93991.31;;;12.34;55.12
71057;BME280;58380;48.312;9.246;2023-05-03T17:53:48;94041.47;;;12.71;55.36
71057;BME280;58380;48.312;9.246;2023-05-03T17:56:17;94067.22;;;12.86;54.82
71057;BME280;58380;48.312;9.246;2023-05-03T17:58:45;93989.69;;;12.33;57.18
71057;BME280;58380;48.312;9.246;2023-05-03T18:01:11;94048.06;;;12.58;57.17
71057;BME280;58380;48.312;9.246;2023-05-03T18:03:37;94060.22;;;12.59;57.04
71057;BME280;58380;48.312;9.246;2023-05-03T18:06:03;94043.50;;;12.43;56.70
71057;BME280;58380;48.312;9.246;2023-05-03T18:08:32;94057.00;;;12.47;58.45
71057;BME280;58380;48.312;9.246;2023-05-03T18:10:57;94050.59;;;12.38;58.13
71057;BME280;58380;48.312;9.246;2023-05-03T18:13:23;94024.28;;;12.11;58.40
71057;BME280;58380;48.312;9.246;2023-05-03T18:15:48;94010.72;;;12.02;56.73
71057;BME280;58380;48.312;9.246;2023-05-03T18:18:14;93942.75;;;11.60;58.17
71057;BME280;58380;48.312;9.246;2023-05-03T18:20:40;94060.88;;;12.24;57.81
71057;BME280;58380;48.312;9.246;2023-05-03T18:23:05;93951.91;;;11.42;58.22
71057;BME280;58380;48.312;9.246;2023-05-03T18:25:31;94006.59;;;11.74;58.90
71057;BME280;58380;48.312;9.246;2023-05-03T18:27:57;94054.41;;;12.04;58.03
71057;BME280;58380;48.312;9.246;2023-05-03T18:30:23;94087.00;;;12.15;57.29
71057;BME280;58380;48.312;9.246;2023-05-03T18:32:53;94066.03;;;11.98;58.03
71057;BME280;58380;48.312;9.246;2023-05-03T18:35:20;94064.69;;;11.96;57.56
71057;BME280;58380;48.312;9.246;2023-05-03T18:37:45;94087.97;;;11.99;59.81
71057;BME280;58380;48.312;9.246;2023-05-03T18:40:11;94088.72;;;11.89;59.08
71057;BME280;58380;48.312;9.246;2023-05-03T18:42:36;94090.19;;;11.80;60.00
71057;BME280;58380;48.312;9.246;2023-05-03T18:45:05;94061.44;;;11.51;60.87
71057;BME280;58380;48.312;9.246;2023-05-03T18:47:31;94086.25;;;11.50;62.26
71057;BME280;58380;48.312;9.246;2023-05-03T18:49:57;94099.66;;;11.38;62.62
71057;BME280;58380;48.312;9.246;2023-05-03T18:52:22;94079.41;;;11.22;62.69
71057;BME280;58380;48.312;9.246;2023-05-03T18:54:48;94102.63;;;11.20;62.61
71057;BME280;58380;48.312;9.246;2023-05-03T18:57:15;94112.91;;;11.16;62.79
71057;BME280;58380;48.312;9.246;2023-05-03T18:59:41;94075.34;;;10.87;64.17
71057;BME280;58380;48.312;9.246;2023-05-03T19:02:07;94083.97;;;10.55;67.06
71057;BME280;58380;48.312;9.246;2023-05-03T19:04:33;94103.13;;;10.46;67.33
71057;BME280;58380;48.312;9.246;2023-05-03T19:06:59;94098.47;;;10.14;68.40
71057;BME280;58380;48.312;9.246;2023-05-03T19:09:25;94020.03;;;9.48;69.46
71057;BME280;58380;48.312;9.246;2023-05-03T19:11:51;94094.91;;;9.69;70.67
71057;BME280;58380;48.312;9.246;2023-05-03T19:14:17;94052.34;;;9.27;70.87
71057;BME280;58380;48.312;9.246;2023-05-03T19:16:42;94076.78;;;9.39;70.66
71057;BME280;58380;48.312;9.246;2023-05-03T19:19:09;94083.81;;;9.34;71.13
71057;BME280;58380;48.312;9.246;2023-05-03T19:21:36;94123.13;;;9.52;71.12
71057;BME280;58380;48.312;9.246;2023-05-03T19:24:06;94099.28;;;9.30;71.45
71057;BME280;58380;48.312;9.246;2023-05-03T19:26:37;94081.56;;;9.09;71.77
71057;BME280;58380;48.312;9.246;2023-05-03T19:29:03;94132.69;;;9.41;71.81
71057;BME280;58380;48.312;9.246;2023-05-03T19:31:28;94120.19;;;9.20;72.68
71057;BME280;58380;48.312;9.246;2023-05-03T19:33:54;94112.03;;;9.04;73.15
71057;BME280;58380;48.312;9.246;2023-05-03T19:36:20;94108.16;;;8.95;74.31
71057;BME280;58380;48.312;9.246;2023-05-03T19:38:45;94127.06;;;8.92;74.78
71057;BME280;58380;48.312;9.246;2023-05-03T19:41:11;94120.00;;;8.81;75.63
71057;BME280;58380;48.312;9.246;2023-05-03T19:43:39;94067.25;;;8.24;76.25
71057;BME280;58380;48.312;9.246;2023-05-03T19:46:08;94043.78;;;7.93;76.96
71057;BME280;58380;48.312;9.246;2023-05-03T19:48:42;93972.53;;;7.43;77.59
71057;BME280;58380;48.312;9.246;2023-05-03T19:51:18;93981.00;;;7.33;77.71
71057;BME280;58380;48.312;9.246;2023-05-03T19:53:43;94050.91;;;7.69;78.58
71057;BME280;58380;48.312;9.246;2023-05-03T19:56:09;94119.22;;;8.05;78.98
71057;BME280;58380;48.312;9.246;2023-05-03T19:58:34;93990.34;;;7.17;79.58
71057;BME280;58380;48.312;9.246;2023-05-03T20:01:00;94039.78;;;7.44;79.48
71057;BME280;58380;48.312;9.246;2023-05-03T20:03:26;93978.69;;;6.89;79.79
71057;BME280;58380;48.312;9.246;2023-05-03T20:05:52;94054.63;;;7.38;79.49
71057;BME280;58380;48.312;9.246;2023-05-03T20:08:18;94120.91;;;7.52;80.57
71057;BME280;58380;48.312;9.246;2023-05-03T20:10:43;94051.75;;;7.16;80.69
71057;BME280;58380;48.312;9.246;2023-05-03T20:13:09;94028.28;;;6.79;81.19
71057;BME280;58380;48.312;9.246;2023-05-03T20:15:35;94067.44;;;6.93;82.29
71057;BME280;58380;48.312;9.246;2023-05-03T20:18:04;94104.25;;;7.04;82.80
71057;BME280;58380;48.312;9.246;2023-05-03T20:20:30;94069.63;;;6.65;83.46
71057;BME280;58380;48.312;9.246;2023-05-03T20:22:56;94034.50;;;6.36;83.89
